Time;durP1;ratioP1;P1;durP2;ratioP2;P2;SDS_P1;SDS_P2;PMS_P1;PMS_P2;Temp;Humidity;BMP_temperature;BMP_pressure;BME280_temperature;BME280_humidity;BME280_pressure;Samples;Min_cycle;Max_cycle;Signal;HPM_P1;HPM_P2
2023/11/20 00:00:35;;;;;;;3.70;2.30;;;;;;;5.81;74.18;100637.19;5115463;28;20066;-69
2023/11/20 00:03:00;;;;;;;4.72;2.47;;;;;;;5.82;74.27;100635.34;5117118;28;20020;-69
2023/11/20 00:05:26;;;;;;;4.88;2.40;;;;;;;5.86;73.88;100640.19;5116991;28;20255;-69
2023/11/20 00:07:51;;;;;;;3.80;2.47;;;;;;;5.71;74.89;100633.06;5117176;28;20016;-69
2023/11/20 00:10:18;;;;;;;4.32;2.30;;;;;;;5.64;75.32;100636.41;5118185;28;20046;-69
2023/11/20 00:12:43;;;;;;;3.70;2.10;;;;;;;5.63;75.95;100628.59;5118013;28;20032;-68
2023/11/20 00:15:09;;;;;;;4.05;2.35;;;;;;;5.45;76.53;100617.28;5117279;28;20031;-68
2023/11/20 00:17:35;;;;;;;3.53;2.40;;;;;;;5.51;76.52;100621.94;5118143;28;20023;-68
2023/11/20 00:20:00;;;;;;;4.90;2.20;;;;;;;5.53;76.88;100628.78;5116911;28;20027;-69
2023/11/20 00:22:25;;;;;;;3.72;2.28;;;;;;;5.52;76.75;100621.75;5116959;28;20012;-69
2023/11/20 00:24:51;;;;;;;3.58;2.45;;;;;;;5.55;76.52;100624.06;5100038;28;20015;-69
2023/11/20 00:27:17;;;;;;;5.80;2.33;;;;;;;5.70;75.92;100626.06;5116868;28;20079;-69
2023/11/20 00:29:44;;;;;;;5.30;2.30;;;;;;;5.57;76.36;100624.75;5117221;28;20035;-68
2023/11/20 00:32:09;;;;;;;5.25;2.20;;;;;;;5.34;77.09;100623.81;5116137;28;20092;-68
2023/11/20 00:34:37;;;;;;;3.80;2.20;;;;;;;5.49;76.56;100626.59;5117362;28;20016;-69
2023/11/20 00:37:03;;;;;;;3.97;2.03;;;;;;;5.52;76.45;100632.41;5116201;28;20058;-68
2023/11/20 00:39:29;;;;;;;3.58;2.50;;;;;;;5.50;76.72;100628.28;5116964;28;20032;-69
2023/11/20 00:41:54;;;;;;;3.05;2.00;;;;;;;5.44;77.02;100619.13;5099633;28;20039;-69
2023/11/20 00:44:19;;;;;;;5.07;2.20;;;;;;;5.72;75.87;100616.03;5116660;28;20094;-68
2023/11/20 00:46:45;;;;;;;4.30;2.13;;;;;;;5.37;77.33;100615.47;5116609;28;20027;-68
2023/11/20 00:49:10;;;;;;;4.47;2.22;;;;;;;5.32;77.52;100594.63;5115805;28;20038;-68
2023/11/20 00:51:35;;;;;;;3.38;2.10;;;;;;;5.32;77.72;100607.94;5113300;28;20123;-68
2023/11/20 00:54:01;;;;;;;3.53;2.00;;;;;;;5.37;77.81;100596.78;5107570;28;20039;-68
2023/11/20 00:56:28;;;;;;;4.50;2.10;;;;;;;5.50;76.89;100612.28;5098743;28;20012;-69
2023/11/20 00:58:54;;;;;;;2.75;1.80;;;;;;;5.42;77.54;100615.78;5112819;28;20040;-68
2023/11/20 01:01:19;;;;;;;2.70;2.10;;;;;;;5.55;77.00;100616.06;5106272;28;20024;-68
2023/11/20 01:03:45;;;;;;;3.75;2.22;;;;;;;5.54;76.95;100613.59;5103415;28;20028;-69
2023/11/20 01:06:12;;;;;;;3.08;2.15;;;;;;;5.32;77.20;100620.47;5109434;28;20077;-68
2023/11/20 01:08:38;;;;;;;3.38;2.25;;;;;;;5.49;77.24;100622.09;5112942;28;20023;-69
2023/11/20 01:11:08;;;;;;;3.15;2.10;;;;;;;5.41;77.65;100624.78;5113056;28;20024;-69
2023/11/20 01:13:34;;;;;;;4.25;2.42;;;;;;;5.29;77.88;100613.63;5113941;28;20043;-69
2023/11/20 01:16:00;;;;;;;2.70;2.20;;;;;;;5.40;77.68;100623.13;5098643;28;20058;-68
2023/11/20 01:18:25;;;;;;;5.20;2.38;;;;;;;5.44;77.73;100615.63;5116087;28;20043;-69
2023/11/20 01:20:51;;;;;;;4.75;2.30;;;;;;;5.39;77.88;100616.09;5084179;28;20039;-70
2023/11/20 01:23:16;;;;;;;3.17;2.20;;;;;;;5.17;79.23;100623.81;5079466;28;20394;-68
2023/11/20 01:25:42;;;;;;;5.07;2.58;;;;;;;5.18;78.79;100614.00;5115772;28;20008;-68
2023/11/20 01:28:07;;;;;;;4.15;2.05;;;;;;;5.34;78.76;100634.47;5115828;28;20024;-69
2023/11/20 01:30:32;;;;;;;4.32;2.50;;;;;;;5.32;79.17;100639.13;5116424;28;20039;-68
2023/11/20 01:32:58;;;;;;;5.82;2.60;;;;;;;5.58;77.69;100634.41;5115175;28;20020;-69
2023/11/20 01:35:23;;;;;;;4.32;2.50;;;;;;;5.60;77.83;100634.25;5115832;28;20024;-69
2023/11/20 01:37:48;;;;;;;3.67;2.25;;;;;;;5.74;76.79;100630.88;5113331;28;20049;-69
2023/11/20 01:40:14;;;;;;;3.70;2.17;;;;;;;5.54;77.42;100630.44;5109041;28;20034;-69
2023/11/20 01:42:39;;;;;;;5.85;2.60;;;;;;;5.48;77.77;100630.28;5114210;28;20008;-69
2023/11/20 01:45:08;;;;;;;4.10;2.40;;;;;;;5.58;77.53;100629.06;5115218;28;20020;-68
2023/11/20 01:47:35;;;;;;;4.75;2.60;;;;;;;5.61;77.63;100634.06;5115163;28;20028;-68
2023/11/20 01:50:01;;;;;;;4.65;2.72;;;;;;;5.57;77.75;100630.09;5114532;28;20036;-68
2023/11/20 01:52:27;;;;;;;4.45;2.50;;;;;;;5.51;78.62;100630.78;5115552;28;20061;-69
2023/11/20 01:54:53;;;;;;;5.63;2.88;;;;;;;5.33;79.63;100648.81;5102285;28;20011;-69
2023/11/20 01:57:19;;;;;;;4.15;2.70;;;;;;;5.29;79.78;100626.97;5105304;28;20043;-69
2023/11/20 01:59:45;;;;;;;3.35;2.60;;;;;;;5.53;79.02;100650.13;5108730;28;20047;-69
2023/11/20 02:02:11;;;;;;;3.70;2.75;;;;;;;5.23;81.13;100653.47;5114628;28;20016;-68
2023/11/20 02:04:38;;;;;;;4.00;2.92;;;;;;;5.12;82.15;100652.00;5114383;28;20027;-68
2023/11/20 02:07:07;;;;;;;2.95;2.58;;;;;;;5.16;81.94;100648.81;5115332;28;20024;-69
2023/11/20 02:09:35;;;;;;;3.97;2.50;;;;;;;5.07;82.25;100647.19;5116644;28;20028;-69
2023/11/20 02:12:00;;;;;;;5.97;3.05;;;;;;;5.02;82.62;100649.50;5115568;28;20024;-69
2023/11/20 02:14:27;;;;;;;6.05;2.50;;;;;;;4.98;82.63;100640.16;5115147;28;20021;-68
2023/11/20 02:16:52;;;;;;;4.43;2.40;;;;;;;4.70;84.47;100640.50;5115381;28;20018;-68
2023/11/20 02:19:18;;;;;;;3.78;2.78;;;;;;;4.82;84.14;100643.66;5115850;28;20040;-69
2023/11/20 02:21:44;;;;;;;4.82;2.70;;;;;;;4.75;84.64;100647.16;5115929;28;20008;-68
2023/11/20 02:24:13;;;;;;;3.53;2.47;;;;;;;4.65;84.51;100624.16;5115546;28;20043;-69
2023/11/20 02:26:54;;;;;;;4.35;2.92;;;;;;;4.79;84.97;100653.81;5116194;28;20079;-68
2023/11/20 02:29:31;;;;;;;4.43;2.58;;;;;;;4.93;84.69;100653.16;5114694;28;20040;-68
2023/11/20 02:31:57;;;;;;;4.55;2.60;;;;;;;4.93;83.59;100634.50;5114312;28;20039;-69
2023/11/20 02:34:23;;;;;;;4.78;2.78;;;;;;;4.99;83.32;100647.16;5114886;28;20020;-69
2023/11/20 02:36:48;;;;;;;3.90;2.65;;;;;;;4.93;83.67;100631.81;5114722;28;20299;-69
2023/11/20 02:39:14;;;;;;;3.35;2.30;;;;;;;5.12;82.49;100638.66;5115084;28;20028;-68
2023/11/20 02:41:40;;;;;;;3.53;2.58;;;;;;;4.83;83.79;100636.47;5114738;28;20051;-68
2023/11/20 02:44:05;;;;;;;4.68;2.50;;;;;;;4.95;84.06;100633.31;5116613;28;20044;-69
2023/11/20 02:46:31;;;;;;;6.93;2.80;;;;;;;4.93;84.36;100634.50;5119093;28;20032;-68
2023/11/20 02:48:57;;;;;;;5.13;2.60;;;;;;;5.08;83.62;100643.50;5118336;28;20034;-69
2023/11/20 02:51:23;;;;;;;4.82;2.63;;;;;;;5.10;83.32;100651.31;5117943;28;20016;-69
2023/11/20 02:53:48;;;;;;;4.53;2.70;;;;;;;5.18;83.39;100656.66;5119188;28;20023;-69
2023/11/20 02:56:14;;;;;;;3.50;2.50;;;;;;;5.01;84.07;100655.84;5118454;28;20034;-68
2023/11/20 02:58:39;;;;;;;4.43;2.85;;;;;;;5.30;82.67;100659.84;5118864;28;20056;-69
2023/11/20 03:01:07;;;;;;;3.60;2.67;;;;;;;5.22;82.72;100644.66;5117927;28;20105;-69
2023/11/20 03:03:33;;;;;;;6.53;3.10;;;;;;;5.23;82.23;100650.81;5118693;28;20015;-69
2023/11/20 03:05:59;;;;;;;3.47;2.42;;;;;;;5.34;82.18;100658.50;5117962;28;20039;-69
2023/11/20 03:08:24;;;;;;;4.18;2.83;;;;;;;5.17;83.10;100653.16;5133306;28;20016;-68
2023/11/20 03:10:50;;;;;;;3.58;2.35;;;;;;;5.19;83.01;100647.66;5116414;28;20055;-69
2023/11/20 03:13:15;;;;;;;4.00;2.80;;;;;;;5.22;82.47;100647.31;5110742;28;20031;-68
2023/11/20 03:15:40;;;;;;;4.40;2.55;;;;;;;5.32;81.68;100657.81;5109546;28;20035;-69
2023/11/20 03:18:07;;;;;;;4.82;3.03;;;;;;;5.35;81.93;100668.97;5098198;28;20034;-68
2023/11/20 03:20:33;;;;;;;5.22;2.83;;;;;;;5.06;83.12;100664.16;5095962;28;20035;-69
2023/11/20 03:22:59;;;;;;;4.13;2.75;;;;;;;4.89;83.53;100625.16;5116564;28;20083;-69
2023/11/20 03:25:24;;;;;;;4.63;2.63;;;;;;;5.06;83.70;100655.31;5118599;28;20038;-69
2023/11/20 03:27:54;;;;;;;5.00;2.70;;;;;;;4.95;84.41;100645.84;5118518;28;20027;-69
2023/11/20 03:30:21;;;;;;;7.80;2.90;;;;;;;5.05;83.43;100641.16;5118646;28;20024;-69
2023/11/20 03:32:46;;;;;;;5.40;2.70;;;;;;;5.18;83.22;100665.50;5118034;28;20023;-69
2023/11/20 03:35:12;;;;;;;6.57;2.90;;;;;;;5.13;83.98;100678.50;5118201;28;20016;-68
2023/11/20 03:37:37;;;;;;;5.75;3.10;;;;;;;5.18;84.02;100681.50;5118090;28;20031;-69
2023/11/20 03:40:05;;;;;;;5.32;3.17;;;;;;;5.12;84.42;100681.34;5118320;28;20111;-68
2023/11/20 03:42:31;;;;;;;9.98;2.95;;;;;;;5.22;83.32;100684.66;5117014;28;20019;-69
2023/11/20 03:44:56;;;;;;;5.07;3.20;;;;;;;5.41;82.78;100692.31;5117668;28;20032;-69
2023/11/20 03:47:22;;;;;;;5.28;3.10;;;;;;;5.32;82.97;100684.50;5118154;28;20031;-69
2023/11/20 03:49:47;;;;;;;5.13;3.28;;;;;;;5.11;83.49;100661.84;5118028;28;20024;-69
2023/11/20 03:52:13;;;;;;;4.05;2.83;;;;;;;5.13;83.96;100686.53;5117958;28;20093;-69
2023/11/20 03:54:40;;;;;;;6.13;3.15;;;;;;;5.13;84.05;100686.53;5116608;28;20024;-68
2023/11/20 03:57:05;;;;;;;4.65;3.05;;;;;;;5.07;84.39;100671.19;5113817;28;20040;-69
2023/11/20 03:59:30;;;;;;;4.72;2.83;;;;;;;4.97;85.65;100678.50;5097527;28;20052;-69
2023/11/20 04:01:57;;;;;;;5.25;3.17;;;;;;;5.04;84.98;100670.69;5099776;28;20071;-68
2023/11/20 04:04:22;;;;;;;4.53;2.90;;;;;;;5.05;84.72;100675.84;5116072;28;20127;-69
2023/11/20 04:06:48;;;;;;;4.45;2.80;;;;;;;5.05;85.62;100673.16;5096670;28;20257;-69
2023/11/20 04:09:13;;;;;;;3.60;2.75;;;;;;;5.22;83.49;100673.16;5098632;28;20501;-68
2023/11/20 04:11:40;;;;;;;4.05;2.63;;;;;;;5.41;82.90;100667.47;5116093;28;20039;-68
2023/11/20 04:14:06;;;;;;;4.60;2.90;;;;;;;5.14;84.59;100666.84;5099169;28;20119;-69
2023/11/20 04:16:33;;;;;;;5.70;2.50;;;;;;;4.94;84.87;100630.84;5099077;28;20012;-68
2023/11/20 04:18:59;;;;;;;5.18;3.15;;;;;;;5.07;85.11;100663.19;5115969;28;20024;-69
2023/11/20 04:21:26;;;;;;;4.45;3.08;;;;;;;5.28;84.26;100667.16;5115504;28;20032;-69
2023/11/20 04:23:52;;;;;;;5.78;3.10;;;;;;;5.23;84.52;100664.16;5115159;28;20031;-68
2023/11/20 04:26:17;;;;;;;3.63;3.05;;;;;;;5.32;83.97;100663.16;5098672;28;20016;-69
2023/11/20 04:28:43;;;;;;;6.72;3.22;;;;;;;5.15;83.95;100647.16;5115234;28;20044;-69
2023/11/20 04:31:08;;;;;;;4.68;2.95;;;;;;;5.08;84.87;100667.50;5115927;28;20020;-69
2023/11/20 04:33:34;;;;;;;4.38;2.80;;;;;;;5.12;84.73;100668.81;5114997;28;20092;-68
2023/11/20 04:36:02;;;;;;;4.55;2.92;;;;;;;5.27;85.29;100674.34;5116047;28;20043;-68
2023/11/20 04:38:30;;;;;;;5.40;3.08;;;;;;;5.32;84.50;100676.50;5116859;28;20018;-69
2023/11/20 04:40:56;;;;;;;5.00;2.88;;;;;;;5.24;84.98;100684.50;5105707;28;20426;-69
2023/11/20 04:43:22;;;;;;;5.47;3.30;;;;;;;5.40;84.38;100682.66;5109789;28;20027;-69
2023/11/20 04:45:48;;;;;;;6.18;3.10;;;;;;;5.36;83.70;100686.69;5120778;28;20070;-69
2023/11/20 04:48:13;;;;;;;4.82;3.00;;;;;;;5.23;84.63;100691.69;5116790;28;20020;-69
2023/11/20 04:50:39;;;;;;;5.20;2.63;;;;;;;5.32;83.82;100671.97;5111978;28;20103;-68
2023/11/20 04:53:04;;;;;;;3.22;2.70;;;;;;;5.45;83.42;100689.31;5092479;28;20005;-69
2023/11/20 04:55:29;;;;;;;6.10;3.17;;;;;;;5.35;84.60;100682.31;5115606;28;20032;-69
2023/11/20 04:57:57;;;;;;;5.00;3.22;;;;;;;5.44;84.19;100683.16;5107489;28;20114;-69
2023/11/20 05:00:22;;;;;;;4.20;3.03;;;;;;;5.47;84.00;100690.00;5115852;28;20109;-69
2023/11/20 05:02:48;;;;;;;5.18;2.95;;;;;;;5.59;83.25;100683.28;5115355;28;20028;-69
2023/11/20 05:05:13;;;;;;;5.15;3.42;;;;;;;5.48;83.68;100697.81;5095321;28;20052;-69
2023/11/20 05:07:39;;;;;;;4.55;3.22;;;;;;;5.50;83.63;100695.84;5094923;28;20021;-69
2023/11/20 05:10:05;;;;;;;5.05;3.38;;;;;;;5.45;83.57;100687.47;5078735;28;20012;-69
2023/11/20 05:12:31;;;;;;;6.75;3.45;;;;;;;5.55;83.60;100700.66;5094871;28;20046;-69
2023/11/20 05:14:57;;;;;;;5.65;3.00;;;;;;;5.47;84.40;100698.84;5094795;28;20442;-69
2023/11/20 05:17:22;;;;;;;4.95;3.22;;;;;;;5.57;83.94;100706.66;5093440;28;20029;-67
2023/11/20 05:19:47;;;;;;;4.75;3.22;;;;;;;5.37;84.42;100692.84;5102284;28;20029;-68
2023/11/20 05:22:13;;;;;;;5.63;3.42;;;;;;;5.32;84.84;100708.50;5081157;28;20028;-68
2023/11/20 05:24:41;;;;;;;5.13;3.67;;;;;;;5.41;85.19;100715.50;5081406;28;20085;-68
2023/11/20 05:27:10;;;;;;;5.00;3.55;;;;;;;5.46;85.01;100707.81;5087785;28;20051;-68
2023/11/20 05:29:39;;;;;;;4.90;3.40;;;;;;;5.43;84.90;100702.84;5080331;28;20012;-68
2023/11/20 05:32:05;;;;;;;4.47;3.13;;;;;;;5.19;85.70;100704.50;5094166;28;20032;-69
2023/11/20 05:34:30;;;;;;;5.65;3.90;;;;;;;5.10;86.94;100697.50;5094780;28;20486;-68
2023/11/20 05:36:56;;;;;;;6.40;3.20;;;;;;;5.17;87.03;100708.34;5093844;28;20031;-68
2023/11/20 05:39:22;;;;;;;4.45;3.40;;;;;;;4.97;88.30;100713.16;5094926;28;20021;-68
2023/11/20 05:41:47;;;;;;;4.22;3.17;;;;;;;4.99;88.65;100705.00;5094513;28;20024;-69
2023/11/20 05:44:16;;;;;;;5.32;3.50;;;;;;;5.05;88.59;100709.66;5094422;28;20008;-68
2023/11/20 05:46:41;;;;;;;5.05;3.42;;;;;;;5.06;88.38;100704.16;5093679;28;20475;-69
2023/11/20 05:49:07;;;;;;;4.35;3.28;;;;;;;5.12;86.17;100674.16;5091253;28;20040;-68
2023/11/20 05:51:32;;;;;;;5.35;3.70;;;;;;;5.46;85.81;100713.16;5092625;28;20029;-69
2023/11/20 05:53:58;;;;;;;5.20;3.47;;;;;;;5.33;85.73;100712.84;5090008;28;20036;-69
2023/11/20 05:56:29;;;;;;;4.53;3.53;;;;;;;5.29;86.73;100716.84;5094697;28;20035;-69
2023/11/20 05:58:54;;;;;;;4.45;3.35;;;;;;;5.39;85.94;100704.16;5094776;28;20028;-69
2023/11/20 06:01:20;;;;;;;5.82;3.60;;;;;;;5.37;85.99;100720.34;5092044;28;20566;-68
2023/11/20 06:03:45;;;;;;;6.97;4.00;;;;;;;5.23;87.29;100717.50;5092299;28;20016;-68
2023/11/20 06:06:18;;;;;;;5.35;3.35;;;;;;;5.42;86.30;100720.66;5092404;28;20024;-67
2023/11/20 06:08:44;;;;;;;6.20;3.53;;;;;;;5.58;84.90;100727.84;5092724;28;20020;-68
2023/11/20 06:11:19;;;;;;;5.55;3.67;;;;;;;5.63;84.98;100732.69;5091398;28;20025;-69
2023/11/20 06:13:44;;;;;;;6.00;3.65;;;;;;;5.64;84.59;100726.34;5091663;28;20024;-69
2023/11/20 06:16:16;;;;;;;7.50;3.50;;;;;;;5.81;83.57;100745.84;5094925;28;20024;-69
2023/11/20 06:18:42;;;;;;;7.32;3.72;;;;;;;5.74;83.34;100742.19;5114448;28;20064;-69
2023/11/20 06:21:08;;;;;;;6.60;3.97;;;;;;;5.65;83.72;100739.50;5106003;28;20106;-69
2023/11/20 06:23:35;;;;;;;5.60;3.63;;;;;;;5.68;83.64;100749.00;5086023;28;20035;-69
2023/11/20 06:26:01;;;;;;;6.25;3.78;;;;;;;5.82;83.15;100753.66;5108844;28;20028;-69
2023/11/20 06:28:27;;;;;;;4.20;3.40;;;;;;;5.73;83.36;100744.03;5108980;28;20025;-69
2023/11/20 06:30:53;;;;;;;5.80;4.10;;;;;;;5.74;83.56;100764.38;5113374;28;20040;-70
2023/11/20 06:33:20;;;;;;;29.83;17.52;;;;;;;5.58;84.46;100759.03;5113175;28;20082;-69
2023/11/20 06:35:46;;;;;;;6.32;4.00;;;;;;;5.44;85.71;100751.72;5114538;28;20024;-69
2023/11/20 06:38:11;;;;;;;51.08;25.52;;;;;;;5.25;86.96;100739.53;5114169;28;20054;-69
2023/11/20 06:40:39;;;;;;;5.22;3.80;;;;;;;5.22;87.73;100753.19;5112881;28;20070;-69
2023/11/20 06:43:06;;;;;;;10.27;5.88;;;;;;;5.27;87.74;100756.22;5113480;28;20031;-69
2023/11/20 06:45:32;;;;;;;18.63;9.02;;;;;;;5.24;88.18;100761.88;5112189;28;20088;-69
2023/11/20 06:47:57;;;;;;;11.13;7.78;;;;;;;5.19;87.43;100751.69;5111508;28;20040;-68
2023/11/20 06:50:27;;;;;;;12.23;7.32;;;;;;;5.34;87.32;100754.53;5112340;28;20039;-68
2023/11/20 06:52:52;;;;;;;9.65;5.60;;;;;;;5.16;88.95;100760.84;5109179;28;20108;-69
2023/11/20 06:55:18;;;;;;;9.10;4.97;;;;;;;5.48;87.06;100761.88;5110762;28;20062;-68
2023/11/20 06:57:47;;;;;;;7.32;4.07;;;;;;;5.18;88.48;100764.19;5111257;28;20032;-69
2023/11/20 07:00:13;;;;;;;6.57;3.75;;;;;;;5.31;87.84;100770.88;5112205;28;20056;-69
2023/11/20 07:02:39;;;;;;;8.20;5.22;;;;;;;5.24;88.66;100772.53;5113571;28;20156;-68
2023/11/20 07:05:05;;;;;;;7.82;4.30;;;;;;;5.46;87.54;100787.88;5113359;28;20024;-68
2023/11/20 07:07:30;;;;;;;7.35;4.10;;;;;;;5.50;87.42;100791.91;5103973;28;20066;-68
2023/11/20 07:09:56;;;;;;;6.43;4.35;;;;;;;5.59;86.68;100788.22;5111476;28;20130;-69
2023/11/20 07:12:21;;;;;;;8.18;4.60;;;;;;;5.55;86.58;100786.88;5112646;28;20021;-68
2023/11/20 07:14:46;;;;;;;5.40;3.90;;;;;;;5.46;86.95;100790.53;5104528;28;20098;-68
2023/11/20 07:17:13;;;;;;;10.50;4.80;;;;;;;5.45;87.71;100799.56;5074865;28;20097;-68
2023/11/20 07:19:41;;;;;;;5.93;3.92;;;;;;;5.56;86.67;100791.25;5108128;28;20054;-68
2023/11/20 07:22:08;;;;;;;8.65;5.95;;;;;;;5.58;87.16;100791.91;5108369;28;20039;-69
2023/11/20 07:24:33;;;;;;;6.88;5.03;;;;;;;5.90;85.31;100806.25;5112950;28;20482;-68
2023/11/20 07:26:58;;;;;;;7.03;4.07;;;;;;;5.85;84.96;100805.91;5112696;28;20024;-68
2023/11/20 07:29:24;;;;;;;7.78;5.07;;;;;;;5.68;86.10;100804.25;5113926;28;20038;-69
2023/11/20 07:31:49;;;;;;;6.90;3.45;;;;;;;5.65;85.50;100792.88;5116364;28;20020;-68
2023/11/20 07:34:15;;;;;;;6.28;3.28;;;;;;;5.45;86.78;100794.22;5116450;28;20461;-68
2023/11/20 07:36:40;;;;;;;6.00;2.97;;;;;;;5.45;87.26;100804.06;5117439;28;20061;-68
2023/11/20 07:39:07;;;;;;;7.85;3.60;;;;;;;5.63;86.91;100816.28;5116324;28;20043;-68
2023/11/20 07:41:33;;;;;;;4.60;3.30;;;;;;;5.62;86.68;100819.91;5099799;28;20024;-68
2023/11/20 07:43:58;;;;;;;4.90;3.70;;;;;;;5.75;86.25;100821.25;5116759;28;20040;-68
2023/11/20 07:46:24;;;;;;;5.10;3.60;;;;;;;5.75;85.70;100799.91;5117207;28;20012;-68
2023/11/20 07:48:50;;;;;;;7.28;4.13;;;;;;;5.73;86.12;100812.56;5117300;28;20036;-68
2023/11/20 07:51:16;;;;;;;10.63;5.20;;;;;;;5.83;85.85;100813.25;5116565;28;20030;-68
2023/11/20 07:53:42;;;;;;;12.60;5.47;;;;;;;5.88;85.43;100819.75;5117618;28;20035;-68
2023/11/20 07:56:08;;;;;;;7.93;3.45;;;;;;;6.04;84.65;100826.13;5117303;28;20048;-68
2023/11/20 07:58:33;;;;;;;5.47;3.42;;;;;;;5.91;85.10;100829.25;5099969;28;20051;-68
2023/11/20 08:00:59;;;;;;;5.85;3.50;;;;;;;6.13;84.11;100837.63;5113296;28;20194;-68
2023/11/20 08:03:25;;;;;;;5.80;4.30;;;;;;;6.13;84.05;100841.13;5110845;28;20032;-68
2023/11/20 08:05:50;;;;;;;6.10;3.80;;;;;;;6.16;83.94;100846.16;5117148;28;20036;-68
2023/11/20 08:08:16;;;;;;;7.78;3.70;;;;;;;6.20;83.73;100850.13;5116395;28;20039;-67
2023/11/20 08:10:41;;;;;;;4.75;3.75;;;;;;;6.00;84.38;100844.31;5117507;28;20023;-68
2023/11/20 08:13:07;;;;;;;4.63;3.40;;;;;;;5.78;85.26;100844.97;5098946;28;20063;-68
2023/11/20 08:15:33;;;;;;;7.47;4.18;;;;;;;5.86;85.68;100850.28;5117668;28;20043;-67
2023/11/20 08:17:58;;;;;;;6.95;3.70;;;;;;;5.73;86.38;100844.59;5118083;28;20035;-68
2023/11/20 08:20:24;;;;;;;8.95;6.00;;;;;;;5.71;86.95;100850.13;5117682;28;20028;-67
2023/11/20 08:22:49;;;;;;;5.95;3.85;;;;;;;5.69;86.51;100835.28;5117543;28;20016;-68
2023/11/20 08:25:15;;;;;;;8.30;4.18;;;;;;;5.90;86.22;100854.31;5104463;28;20057;-67
2023/11/20 08:27:41;;;;;;;9.30;3.80;;;;;;;5.84;86.64;100850.47;5094744;28;20047;-68
2023/11/20 08:30:08;;;;;;;4.10;3.30;;;;;;;5.45;86.85;100812.91;5114075;28;20038;-68
2023/11/20 08:32:34;;;;;;;4.70;3.28;;;;;;;5.68;87.77;100846.97;5115963;28;20051;-68
2023/11/20 08:34:59;;;;;;;6.20;3.13;;;;;;;5.52;87.48;100839.78;5099724;28;20031;-69
2023/11/20 08:37:25;;;;;;;16.20;7.03;;;;;;;5.81;87.24;100852.63;5115952;28;20722;-68
2023/11/20 08:39:50;;;;;;;8.15;4.45;;;;;;;5.74;87.22;100855.13;5116488;28;20144;-68
2023/11/20 08:42:16;;;;;;;9.95;4.60;;;;;;;5.70;87.86;100855.66;5116290;28;20027;-68
2023/11/20 08:44:42;;;;;;;5.97;3.25;;;;;;;5.87;86.75;100865.31;5099312;28;20055;-68
2023/11/20 08:47:07;;;;;;;6.18;3.80;;;;;;;5.94;86.36;100862.84;5116856;28;20016;-70
2023/11/20 08:49:32;;;;;;;8.55;3.30;;;;;;;5.80;86.49;100838.47;5098815;28;20024;-68
2023/11/20 08:51:58;;;;;;;5.30;3.90;;;;;;;6.08;85.55;100868.34;5116449;28;20050;-68
2023/11/20 08:54:24;;;;;;;4.97;3.53;;;;;;;6.00;85.63;100870.19;5098841;28;20020;-68
2023/11/20 08:56:51;;;;;;;5.25;3.50;;;;;;;6.01;86.04;100877.22;5116770;28;20054;-68
2023/11/20 08:59:18;;;;;;;5.93;3.40;;;;;;;5.77;86.92;100880.69;5116657;28;20036;-68
2023/11/20 09:01:45;;;;;;;4.80;3.40;;;;;;;6.07;85.59;100882.72;5117228;28;20033;-68
2023/11/20 09:04:12;;;;;;;3.88;3.20;;;;;;;6.07;85.83;100893.41;5116068;28;20016;-68
2023/11/20 09:06:37;;;;;;;6.95;3.45;;;;;;;5.91;86.24;100892.53;5116068;28;20087;-68
2023/11/20 09:09:05;;;;;;;5.97;3.22;;;;;;;5.94;86.39;100893.06;5099388;28;20099;-68
2023/11/20 09:11:31;;;;;;;6.88;3.70;;;;;;;5.97;86.14;100871.38;5116713;28;20008;-68
2023/11/20 09:13:57;;;;;;;6.20;3.50;;;;;;;5.82;87.05;100881.84;5117122;28;20027;-68
2023/11/20 09:16:23;;;;;;;5.40;3.20;;;;;;;5.83;87.21;100880.84;5116146;28;20040;-68
2023/11/20 09:18:49;;;;;;;5.45;3.75;;;;;;;5.88;86.80;100870.50;5117221;28;20028;-68
2023/11/20 09:21:15;;;;;;;8.02;4.18;;;;;;;5.99;86.81;100881.88;5116850;28;20019;-68
2023/11/20 09:23:44;;;;;;;4.90;3.42;;;;;;;5.83;86.81;100853.31;5115089;28;20028;-68
2023/11/20 09:26:11;;;;;;;4.82;3.50;;;;;;;6.00;86.42;100876.38;5104932;28;20024;-68
2023/11/20 09:28:38;;;;;;;5.53;3.60;;;;;;;5.99;86.33;100881.88;5110533;28;20186;-68
2023/11/20 09:31:04;;;;;;;9.70;3.83;;;;;;;5.98;86.09;100878.38;5096233;28;20509;-68
2023/11/20 09:33:30;;;;;;;5.88;3.30;;;;;;;6.00;86.45;100880.88;5109925;28;20103;-68
2023/11/20 09:35:55;;;;;;;6.35;3.42;;;;;;;5.92;87.20;100880.84;5109952;28;20043;-68
2023/11/20 09:38:20;;;;;;;8.38;4.35;;;;;;;5.84;87.84;100874.50;5110997;28;20016;-68
2023/11/20 09:40:46;;;;;;;10.95;6.28;;;;;;;5.73;87.78;100874.84;5115134;28;20019;-68
2023/11/20 09:43:13;;;;;;;16.40;8.40;;;;;;;6.07;86.67;100873.88;5115198;28;20020;-69
2023/11/20 09:45:41;;;;;;;11.07;6.32;;;;;;;6.12;86.20;100866.16;5113601;28;20093;-68
2023/11/20 09:48:09;;;;;;;13.25;6.97;;;;;;;5.50;86.16;100797.25;5115427;28;20028;-68
2023/11/20 09:50:38;;;;;;;21.10;9.55;;;;;;;6.28;85.65;100868.81;5116070;28;20036;-68
2023/11/20 09:53:08;;;;;;;17.38;7.72;;;;;;;6.02;86.53;100878.88;5115343;28;20650;-68
2023/11/20 09:55:33;;;;;;;14.05;7.57;;;;;;;6.04;86.83;100867.03;5116025;28;20020;-68
2023/11/20 09:57:59;;;;;;;18.40;9.07;;;;;;;5.98;86.82;100883.72;5116134;28;20058;-68
2023/11/20 10:00:25;;;;;;;11.85;5.70;;;;;;;5.95;87.28;100884.03;5115127;28;20357;-68
2023/11/20 10:02:52;;;;;;;7.90;3.40;;;;;;;6.02;87.03;100886.88;5114900;28;20012;-68
2023/11/20 10:05:27;;;;;;;6.63;3.08;;;;;;;5.99;87.29;100893.38;5116312;28;20032;-68
2023/11/20 10:07:55;;;;;;;;;;;;;;;6.09;86.73;100886.06;5115731;28;20052;-68
2023/11/20 10:10:21;;;;;;;4.72;2.90;;;;;;;5.97;87.12;100871.38;5115290;28;19916;-68
2023/11/20 10:12:48;;;;;;;5.88;3.38;;;;;;;6.05;86.98;100890.03;5115014;28;20042;-68
2023/11/20 10:15:14;;;;;;;8.32;3.42;;;;;;;6.10;87.36;100884.22;5114799;28;20008;-68
2023/11/20 10:17:40;;;;;;;6.15;3.30;;;;;;;6.22;85.85;100866.00;5115934;28;20039;-69
2023/11/20 10:20:09;;;;;;;5.10;2.72;;;;;;;6.28;86.02;100892.88;5115426;28;20024;-68
2023/11/20 10:22:36;;;;;;;5.18;3.00;;;;;;;6.13;86.95;100891.06;5113433;28;20032;-68
2023/11/20 10:25:06;;;;;;;5.95;3.65;;;;;;;6.43;86.05;100892.19;5095119;28;20577;-69
2023/11/20 10:27:32;;;;;;;7.78;3.38;;;;;;;6.41;85.49;100894.19;5111188;28;20032;-68
2023/11/20 10:29:57;;;;;;;6.82;3.20;;;;;;;6.21;87.04;100891.88;5114126;28;20085;-69
2023/11/20 10:32:25;;;;;;;6.35;3.70;;;;;;;6.26;86.71;100889.56;5114069;28;20032;-68
2023/11/20 10:35:14;;;;;;;5.03;3.50;;;;;;;6.27;85.83;100874.34;5115276;28;20058;-68
2023/11/20 10:37:59;;;;;;;9.20;3.75;;;;;;;6.49;85.66;100887.00;5115566;28;20027;-68
2023/11/20 10:40:25;;;;;;;6.18;3.20;;;;;;;6.19;85.89;100858.31;5114863;28;20037;-68
2023/11/20 10:42:52;;;;;;;4.78;2.70;;;;;;;6.13;86.32;100869.69;5114599;28;20039;-69
2023/11/20 10:45:18;;;;;;;3.65;2.40;;;;;;;6.02;87.74;100893.06;5113282;28;20064;-68
2023/11/20 10:47:45;;;;;;;4.80;2.70;;;;;;;6.23;87.11;100892.56;5111106;28;20054;-68
2023/11/20 10:50:13;;;;;;;7.18;3.55;;;;;;;6.41;86.41;100894.19;5113091;28;20080;-68
2023/11/20 10:52:42;;;;;;;5.65;2.80;;;;;;;6.42;86.33;100891.34;5098372;28;20024;-69
2023/11/20 10:55:12;;;;;;;4.60;3.22;;;;;;;6.35;85.82;100882.34;5115741;28;20096;-69
2023/11/20 10:57:38;;;;;;;10.38;3.13;;;;;;;6.20;86.83;100884.03;5115721;28;20041;-68
2023/11/20 11:00:10;;;;;;;4.97;2.53;;;;;;;6.23;86.32;100887.22;5115470;28;20028;-68
2023/11/20 11:02:42;;;;;;;9.48;3.40;;;;;;;6.14;86.62;100866.84;5115808;28;20015;-68
2023/11/20 11:05:10;;;;;;;5.82;2.60;;;;;;;6.25;86.67;100884.34;5117358;28;20022;-68
2023/11/20 11:07:40;;;;;;;5.40;2.90;;;;;;;6.26;86.89;100884.22;5119725;28;20053;-67
2023/11/20 11:10:14;;;;;;;6.65;2.67;;;;;;;6.32;86.72;100893.38;5117714;28;20027;-68
2023/11/20 11:12:44;;;;;;;5.97;2.75;;;;;;;6.39;86.70;100891.72;5115015;28;20115;-68
2023/11/20 11:15:14;;;;;;;6.38;2.90;;;;;;;6.72;85.18;100907.66;5119292;28;20053;-68
2023/11/20 11:17:49;;;;;;;5.07;2.78;;;;;;;6.66;84.50;100903.84;5119172;28;20034;-68
2023/11/20 11:20:18;;;;;;;;;;;;;;;6.73;84.89;100904.00;5119026;28;20024;-68
2023/11/20 11:23:07;;;;;;;4.35;2.70;;;;;;;6.62;85.26;100901.66;5118583;28;19899;-68
2023/11/20 11:25:46;;;;;;;5.82;2.80;;;;;;;6.63;85.64;100900.69;5117711;28;20016;-68
2023/11/20 11:28:17;;;;;;;5.35;3.00;;;;;;;6.70;85.79;100904.34;5119005;28;20043;-68
2023/11/20 11:30:44;;;;;;;5.05;3.35;;;;;;;6.75;85.54;100901.97;5118438;28;20032;-68